Leo, Texas
Current Conditions -  °F | °C
As of 6:35 PM on Friday 21 Nov 2014 (Local Time) from KGYB Reporting Station
Overcast Overcast  
Wind Chill: 67°   Ceiling: 2400
Heat Index: 67°   Visibility: 10mi
Dew Point: 65°   Wind: 12mph
Humidity: 95%   Direction: 140°SE
Pressure: 30.09"   Gusts: 18mph
Location:  30.4292°N, 97.0703°W
Report Text: KGYB 220035Z AUTO 14010G16KT 10SM SCT012 BKN024 OVC055 19/18 A3009 RMK AO2 T01920183
Loading
Personal Weather Stations






























Interactive Weather Map New forecast layout! Learn more

10-Day Weather Forecast

Advertisements
Track Severe Weather on mobile